createdAt,value
2023-04-05T00:00:01.737Z,-2.00
2023-04-05T00:02:31.620Z,-1.90
2023-04-05T00:05:00.687Z,-1.90
2023-04-05T00:07:29.022Z,-1.80
2023-04-05T00:09:57.390Z,-1.80
2023-04-05T00:12:25.540Z,-1.90
2023-04-05T00:14:53.821Z,-2.00
2023-04-05T00:17:23.585Z,-1.60
2023-04-05T00:19:58.191Z,-1.70
2023-04-05T00:22:26.990Z,-1.80
2023-04-05T00:24:55.234Z,-1.90
2023-04-05T00:27:23.385Z,-2.00
2023-04-05T00:29:53.960Z,-2.00
2023-04-05T00:32:23.528Z,-1.90
2023-04-05T00:34:53.151Z,-2.00
2023-04-05T00:37:22.633Z,-1.70
2023-04-05T00:39:50.970Z,-1.60
2023-04-05T00:42:19.147Z,-1.80
2023-04-05T00:44:47.406Z,-1.80
2023-04-05T00:47:15.856Z,-1.80
2023-04-05T00:49:45.424Z,-1.90
2023-04-05T00:52:14.772Z,-2.00
2023-04-05T00:54:43.489Z,-2.00
2023-04-05T00:57:12.159Z,-1.90
2023-04-05T00:59:40.544Z,-1.90
2023-04-05T01:02:13.940Z,-1.70
2023-04-05T01:04:50.304Z,-1.80
2023-04-05T01:07:25.027Z,-1.60
2023-04-05T01:09:56.686Z,-1.80
2023-04-05T01:12:26.535Z,-1.90
2023-04-05T01:14:56.104Z,-1.80
2023-04-05T01:17:28.276Z,-1.80
2023-04-05T01:19:59.481Z,-2.10
2023-04-05T01:22:42.498Z,-1.90
2023-04-05T01:25:19.656Z,-2.10
2023-04-05T01:27:57.634Z,-1.90
2023-04-05T01:30:30.280Z,-1.80
2023-04-05T01:33:04.802Z,-1.90
2023-04-05T01:35:38.999Z,-1.80
2023-04-05T01:38:08.639Z,-2.00
2023-04-05T01:40:38.518Z,-1.90
2023-04-05T01:43:14.306Z,-2.10
2023-04-05T01:45:44.326Z,-2.10
2023-04-05T01:48:12.528Z,-2.00
2023-04-05T01:50:42.205Z,-1.80
2023-04-05T01:53:10.960Z,-1.90
2023-04-05T01:55:39.252Z,-1.70
2023-04-05T01:58:07.480Z,-1.80
2023-04-05T02:00:35.659Z,-1.30
2023-04-05T02:03:05.627Z,-1.20
2023-04-05T02:05:34.116Z,-1.20
2023-04-05T02:08:02.218Z,-1.30
2023-04-05T02:10:30.454Z,-1.30
2023-04-05T02:12:58.613Z,-1.20
2023-04-05T02:15:26.758Z,-1.30
2023-04-05T02:17:55.110Z,-1.20
2023-04-05T02:20:26.079Z,-1.10
2023-04-05T02:22:54.279Z,-1.20
2023-04-05T02:25:22.515Z,-1.10
2023-04-05T02:27:50.841Z,-1.00
2023-04-05T02:30:18.984Z,-1.00
2023-04-05T02:32:47.327Z,-1.20
2023-04-05T02:35:17.406Z,-1.10
2023-04-05T02:37:47.084Z,-1.30
2023-04-05T02:40:16.150Z,-1.30
2023-04-05T02:42:44.322Z,-0.90
2023-04-05T02:45:12.787Z,-1.10
2023-04-05T02:47:41.211Z,-0.90
2023-04-05T02:50:09.755Z,-1.10
2023-04-05T02:52:39.667Z,-1.30
2023-04-05T02:55:09.500Z,-1.30
2023-04-05T02:57:37.806Z,-1.30
2023-04-05T03:00:08.330Z,-1.20
2023-04-05T03:02:37.805Z,-1.20
2023-04-05T03:05:06.431Z,-1.30
2023-04-05T03:07:35.632Z,-1.50
2023-04-05T03:10:05.213Z,-1.30
2023-04-05T03:12:34.890Z,-1.40
2023-04-05T03:15:03.062Z,-1.20
2023-04-05T03:17:31.250Z,-1.10
2023-04-05T03:20:00.976Z,-1.00
2023-04-05T03:22:29.257Z,-1.10
2023-04-05T03:24:57.457Z,-0.90
2023-04-05T03:27:26.214Z,-0.90
2023-04-05T03:29:55.810Z,-0.90
2023-04-05T03:32:24.120Z,-1.00
2023-04-05T03:34:52.268Z,-1.00
2023-04-05T03:37:20.431Z,-1.00
2023-04-05T03:39:50.379Z,-1.00
2023-04-05T03:42:18.690Z,-1.00
2023-04-05T03:44:47.934Z,-0.90
2023-04-05T03:47:17.663Z,-0.80
2023-04-05T03:49:45.796Z,-0.90
2023-04-05T03:52:13.875Z,-0.90
2023-04-05T03:54:42.128Z,-0.80
2023-04-05T03:57:10.323Z,-0.60
2023-04-05T03:59:38.565Z,-0.70
2023-04-05T04:02:06.812Z,-0.50
2023-04-05T04:04:36.502Z,-0.60
2023-04-05T04:07:04.698Z,-0.40
2023-04-05T04:09:33.072Z,-0.60
2023-04-05T04:12:01.243Z,-0.50
2023-04-05T04:14:29.434Z,-0.30
2023-04-05T04:16:57.812Z,-0.30
2023-04-05T04:19:25.932Z,-0.50
2023-04-05T04:21:56.301Z,-0.40
2023-04-05T04:24:26.827Z,-0.30
2023-04-05T04:26:58.036Z,-0.20
2023-04-05T04:29:31.046Z,-0.20
2023-04-05T04:31:59.310Z,-0.30
2023-04-05T04:34:30.703Z,-0.10
2023-04-05T04:37:01.913Z,-0.10
2023-04-05T04:39:32.934Z,-0.10
2023-04-05T04:42:01.625Z,0.00
2023-04-05T04:44:31.537Z,0.00
2023-04-05T04:46:59.977Z,0.00
2023-04-05T04:49:28.611Z,0.10
2023-04-05T04:51:58.732Z,0.20
2023-04-05T04:54:34.200Z,0.20
2023-04-05T04:57:02.687Z,0.20
2023-04-05T04:59:31.098Z,0.30
2023-04-05T05:01:59.456Z,0.30
2023-04-05T05:04:27.890Z,0.40
2023-04-05T05:06:56.214Z,0.30
2023-04-05T05:09:24.327Z,0.30
2023-04-05T05:12:02.702Z,0.40
2023-04-05T05:14:30.968Z,0.40
2023-04-05T05:17:00.217Z,0.50
2023-04-05T05:19:29.067Z,0.50
2023-04-05T05:21:57.281Z,0.50
2023-04-05T05:24:25.732Z,0.50
2023-04-05T05:26:55.291Z,0.50
2023-04-05T05:29:23.456Z,0.50
2023-04-05T05:31:51.926Z,0.60
2023-04-05T05:34:20.322Z,0.60
2023-04-05T05:36:48.436Z,0.60
2023-04-05T05:39:18.438Z,0.60
2023-04-05T05:41:48.662Z,0.60
2023-04-05T05:44:18.214Z,0.60
2023-04-05T05:46:46.526Z,0.70
2023-04-05T05:49:14.891Z,0.70
2023-04-05T05:51:43.019Z,0.70
2023-04-05T05:54:11.243Z,0.70
2023-04-05T05:56:39.626Z,0.80
2023-04-05T05:59:08.195Z,0.80
2023-04-05T06:01:46.942Z,0.80
2023-04-05T06:04:16.738Z,0.80
2023-04-05T06:06:46.869Z,0.90
2023-04-05T06:09:15.166Z,0.90
2023-04-05T06:11:49.734Z,0.90
2023-04-05T06:14:23.989Z,0.90
2023-04-05T06:16:53.582Z,0.90
2023-04-05T06:19:21.819Z,1.00
2023-04-05T06:21:50.144Z,1.00
2023-04-05T06:24:18.280Z,1.00
2023-04-05T06:26:46.455Z,1.00
2023-04-05T06:29:14.593Z,1.10
2023-04-05T06:31:43.864Z,1.10
2023-04-05T06:34:13.538Z,1.10
2023-04-05T06:36:41.675Z,1.10
2023-04-05T06:39:09.939Z,1.10
2023-04-05T06:41:38.041Z,1.10
2023-04-05T06:44:06.360Z,1.10
2023-04-05T06:46:34.656Z,1.10
2023-04-05T06:49:05.770Z,1.10
2023-04-05T06:51:35.335Z,1.20
2023-04-05T06:54:03.524Z,1.20
2023-04-05T06:56:32.074Z,1.20
2023-04-05T06:59:02.419Z,1.20
2023-04-05T07:01:30.923Z,1.30
2023-04-05T07:03:59.185Z,1.30
2023-04-05T07:06:27.376Z,1.40
2023-04-05T07:08:57.123Z,1.40
2023-04-05T07:11:25.278Z,1.40
2023-04-05T07:13:53.395Z,1.40
2023-04-05T07:16:23.752Z,1.50
2023-04-05T07:18:52.076Z,1.40
2023-04-05T07:21:20.468Z,1.40
2023-04-05T07:23:48.780Z,1.50
2023-04-05T07:26:18.340Z,1.50
2023-04-05T07:28:47.558Z,1.50
2023-04-05T07:31:18.207Z,1.50
2023-04-05T07:33:46.347Z,1.70
2023-04-05T07:36:14.688Z,1.90
2023-04-05T07:38:43.409Z,1.80
2023-04-05T07:41:11.891Z,1.80
2023-04-05T07:43:43.751Z,1.70
2023-04-05T07:46:12.012Z,1.70
2023-04-05T07:48:40.117Z,1.70
2023-04-05T07:51:08.995Z,1.60
2023-04-05T07:53:37.583Z,1.60
2023-04-05T07:56:06.521Z,1.70
2023-04-05T07:58:37.187Z,1.70
2023-04-05T08:01:06.883Z,1.70
2023-04-05T08:03:39.934Z,1.80
2023-04-05T08:06:12.420Z,1.70
2023-04-05T08:08:41.045Z,1.80
2023-04-05T08:11:09.266Z,1.80
2023-04-05T08:13:40.592Z,1.80
2023-04-05T08:16:10.539Z,1.90
2023-04-05T08:18:38.945Z,1.90
2023-04-05T08:21:07.200Z,2.00
2023-04-05T08:23:35.639Z,2.00
2023-04-05T08:26:04.177Z,1.90
2023-04-05T08:28:32.450Z,1.90
2023-04-05T08:31:00.659Z,2.10
2023-04-05T08:33:31.276Z,2.10
2023-04-05T08:36:04.784Z,2.00
2023-04-05T08:38:33.024Z,2.00
2023-04-05T08:41:08.233Z,1.90
2023-04-05T08:43:42.640Z,2.00
2023-04-05T08:46:11.247Z,2.00
2023-04-05T08:48:43.572Z,2.10
2023-04-05T08:51:11.661Z,2.20
2023-04-05T08:53:40.216Z,2.30
2023-04-05T08:56:08.517Z,2.40
2023-04-05T08:58:39.031Z,2.30
2023-04-05T09:01:07.922Z,2.30
2023-04-05T09:03:37.396Z,2.30
2023-04-05T09:06:08.934Z,2.50
2023-04-05T09:08:37.018Z,2.40
2023-04-05T09:11:05.417Z,2.50
2023-04-05T09:13:33.911Z,2.40
2023-04-05T09:16:02.798Z,2.30
2023-04-05T09:18:32.161Z,2.30
2023-04-05T09:21:04.175Z,2.30
2023-04-05T09:23:37.653Z,2.20
2023-04-05T09:26:18.689Z,2.30
2023-04-05T09:28:46.882Z,2.30
2023-04-05T09:31:29.950Z,2.30
2023-04-05T09:33:59.159Z,2.20
2023-04-05T09:36:28.507Z,2.40
2023-04-05T09:39:07.856Z,2.30
2023-04-05T09:41:36.410Z,2.10
2023-04-05T09:44:04.864Z,2.00
2023-04-05T09:46:34.486Z,2.10
2023-04-05T09:49:04.182Z,2.00
2023-04-05T09:51:36.097Z,2.00
2023-04-05T09:54:04.946Z,1.90
2023-04-05T09:56:35.401Z,1.80
2023-04-05T09:59:04.822Z,1.80
2023-04-05T10:01:33.332Z,1.70
2023-04-05T10:04:02.953Z,1.70
2023-04-05T10:06:38.631Z,1.70
2023-04-05T10:09:07.380Z,1.70
2023-04-05T10:11:37.475Z,1.70
2023-04-05T10:14:06.364Z,1.70
2023-04-05T10:16:35.758Z,1.80
2023-04-05T10:19:06.860Z,1.80
2023-04-05T10:21:36.907Z,1.70
2023-04-05T10:24:11.474Z,1.80
2023-04-05T10:26:46.981Z,1.80
2023-04-05T10:29:18.895Z,1.70
2023-04-05T10:31:51.356Z,1.70
2023-04-05T10:34:26.468Z,1.70
2023-04-05T10:36:58.134Z,1.60
2023-04-05T10:39:27.868Z,1.60
2023-04-05T10:42:02.862Z,1.60
2023-04-05T10:44:35.314Z,1.60
2023-04-05T10:47:04.052Z,1.60
2023-04-05T10:49:38.453Z,1.60
2023-04-05T10:52:07.379Z,1.50
2023-04-05T10:54:37.231Z,1.60
2023-04-05T10:57:10.990Z,1.60
2023-04-05T10:59:42.683Z,1.50
2023-04-05T11:02:11.550Z,1.50
2023-04-05T11:04:42.102Z,1.50
2023-04-05T11:07:14.408Z,1.50
2023-04-05T11:09:51.904Z,1.50
2023-04-05T11:12:21.591Z,1.60
2023-04-05T11:14:49.895Z,1.50
2023-04-05T11:17:27.427Z,1.50
2023-04-05T11:20:03.943Z,1.50
2023-04-05T11:22:32.323Z,1.50
2023-04-05T11:25:03.047Z,1.50
2023-04-05T11:27:37.678Z,1.50
2023-04-05T11:30:06.972Z,1.50
2023-04-05T11:32:42.086Z,1.50
2023-04-05T11:35:14.974Z,1.30
2023-04-05T11:37:56.426Z,1.30
2023-04-05T11:40:28.836Z,1.30
2023-04-05T11:43:06.124Z,1.30
2023-04-05T11:45:34.668Z,1.30
2023-04-05T11:48:06.066Z,1.30
2023-04-05T11:50:36.854Z,1.30
2023-04-05T11:53:12.098Z,1.30
2023-04-05T11:55:41.007Z,1.20
2023-04-05T11:58:17.867Z,1.20
2023-04-05T12:00:46.643Z,1.20
2023-04-05T12:03:15.261Z,1.20
2023-04-05T12:05:46.984Z,1.20
2023-04-05T12:08:15.567Z,1.30
2023-04-05T12:10:43.815Z,1.40
2023-04-05T12:13:12.205Z,1.40
2023-04-05T12:15:43.006Z,1.40
2023-04-05T12:18:18.692Z,1.40
2023-04-05T12:20:47.324Z,1.40
2023-04-05T12:23:17.596Z,1.30
2023-04-05T12:25:50.413Z,1.40
2023-04-05T12:28:18.604Z,1.40
2023-04-05T12:30:52.118Z,1.40
2023-04-05T12:33:30.237Z,1.30
2023-04-05T12:35:58.968Z,1.40
2023-04-05T12:38:28.333Z,1.30
2023-04-05T12:41:00.682Z,1.40
2023-04-05T12:43:42.027Z,1.40
2023-04-05T12:46:17.867Z,1.30
2023-04-05T12:48:51.214Z,1.30
2023-04-05T12:51:19.378Z,1.20
2023-04-05T12:53:51.263Z,1.00
2023-04-05T12:56:19.591Z,0.90
2023-04-05T12:58:50.919Z,0.90
2023-04-05T13:01:20.732Z,0.90
2023-04-05T13:03:49.974Z,0.80
2023-04-05T13:06:18.220Z,0.80
2023-04-05T13:08:46.674Z,0.70
2023-04-05T13:11:14.831Z,0.60
2023-04-05T13:13:42.983Z,0.60
2023-04-05T13:16:11.273Z,0.40
2023-04-05T13:18:42.365Z,0.40
2023-04-05T13:21:10.623Z,0.40
2023-04-05T13:23:39.909Z,0.50
2023-04-05T13:26:08.596Z,0.40
2023-04-05T13:28:36.810Z,0.40
2023-04-05T13:31:06.490Z,0.50
2023-04-05T13:33:37.651Z,0.40
2023-04-05T13:36:07.915Z,0.40
2023-04-05T13:38:36.115Z,0.30
2023-04-05T13:41:04.300Z,0.30
2023-04-05T13:43:32.480Z,0.30
2023-04-05T13:46:00.643Z,0.30
2023-04-05T13:48:28.929Z,0.40
2023-04-05T13:50:57.086Z,0.40
2023-04-05T13:53:28.474Z,0.40
2023-04-05T13:55:56.938Z,0.40
2023-04-05T13:58:25.169Z,0.30
2023-04-05T14:00:53.685Z,0.30
2023-04-05T14:03:21.860Z,0.30
2023-04-05T14:05:52.375Z,0.30
2023-04-05T14:08:22.323Z,0.30
2023-04-05T14:10:52.186Z,0.30
2023-04-05T14:13:20.323Z,0.30
2023-04-05T14:15:49.646Z,0.40
2023-04-05T14:18:18.067Z,0.40
2023-04-05T14:20:46.310Z,0.40
2023-04-05T14:23:14.686Z,0.40
2023-04-05T14:25:43.144Z,0.50
2023-04-05T14:28:12.840Z,0.50
2023-04-05T14:30:41.262Z,0.50
2023-04-05T14:33:09.716Z,0.60
2023-04-05T14:35:38.048Z,0.50
2023-04-05T14:38:06.474Z,0.50
2023-04-05T14:40:35.971Z,0.60
2023-04-05T14:43:04.415Z,0.60
2023-04-05T14:45:36.915Z,0.60
2023-04-05T14:48:05.276Z,0.60
2023-04-05T14:50:36.798Z,0.70
2023-04-05T14:53:05.005Z,0.70
2023-04-05T14:55:33.492Z,0.70
2023-04-05T14:58:01.738Z,0.70
2023-04-05T15:00:29.933Z,0.70
2023-04-05T15:02:59.699Z,0.70
2023-04-05T15:05:28.084Z,0.70
2023-04-05T15:07:56.335Z,0.70
2023-04-05T15:10:24.570Z,0.80
2023-04-05T15:12:52.975Z,0.80
2023-04-05T15:15:21.294Z,0.80
2023-04-05T15:17:49.556Z,0.70
2023-04-05T15:20:19.281Z,0.80
2023-04-05T15:22:47.551Z,0.80
2023-04-05T15:25:15.831Z,0.80
2023-04-05T15:27:44.114Z,0.80
2023-04-05T15:30:12.832Z,0.80
2023-04-05T15:32:41.199Z,0.80
2023-04-05T15:35:09.917Z,0.80
2023-04-05T15:37:40.877Z,0.80
2023-04-05T15:40:09.738Z,0.80
2023-04-05T15:42:41.143Z,0.80
2023-04-05T15:45:10.124Z,0.80
2023-04-05T15:47:38.576Z,0.90
2023-04-05T15:50:07.553Z,0.90
2023-04-05T15:52:36.612Z,0.90
2023-04-05T15:55:06.986Z,0.90
2023-04-05T15:57:35.192Z,0.90
2023-04-05T16:00:03.623Z,1.00
2023-04-05T16:02:32.599Z,1.00
2023-04-05T16:05:00.841Z,1.00
2023-04-05T16:07:28.976Z,1.00
2023-04-05T16:09:59.152Z,0.90
2023-04-05T16:12:29.129Z,1.00
2023-04-05T16:14:58.805Z,1.00
2023-04-05T16:17:28.079Z,1.00
2023-04-05T16:19:57.248Z,1.00
2023-04-05T16:22:25.837Z,1.00
2023-04-05T16:24:53.956Z,1.00
2023-04-05T16:27:22.464Z,1.00
2023-04-05T16:29:52.117Z,1.00
2023-04-05T16:32:23.438Z,0.90
2023-04-05T16:34:51.811Z,0.90
2023-04-05T16:37:20.871Z,0.90
2023-04-05T16:39:49.175Z,0.90
2023-04-05T16:42:17.409Z,0.90
2023-04-05T16:44:45.665Z,0.90
2023-04-05T16:47:15.566Z,0.90
2023-04-05T16:49:43.823Z,0.90
2023-04-05T16:52:12.072Z,0.90
2023-04-05T16:54:40.309Z,0.90
2023-04-05T16:57:08.541Z,0.90
2023-04-05T16:59:36.827Z,0.90
2023-04-05T17:02:05.083Z,0.90
2023-04-05T17:04:36.544Z,0.90
2023-04-05T17:07:06.046Z,0.90
2023-04-05T17:09:34.339Z,0.90
2023-04-05T17:12:03.751Z,0.90
2023-04-05T17:14:32.351Z,0.90
2023-04-05T17:17:00.578Z,0.80
2023-04-05T17:19:28.978Z,0.80
2023-04-05T17:22:01.512Z,0.80
2023-04-05T17:24:34.487Z,0.80
2023-04-05T17:27:02.854Z,0.80
2023-04-05T17:29:31.100Z,0.80
2023-04-05T17:32:01.672Z,0.80
2023-04-05T17:34:29.856Z,0.80
2023-04-05T17:36:58.072Z,0.80
2023-04-05T17:39:30.134Z,0.80
2023-04-05T17:41:58.473Z,0.80
2023-04-05T17:44:29.646Z,0.80
2023-04-05T17:47:08.493Z,0.70
2023-04-05T17:49:38.066Z,0.70
2023-04-05T17:52:08.820Z,0.70
2023-04-05T17:54:38.543Z,0.70
2023-04-05T17:57:07.106Z,0.70
2023-04-05T17:59:36.354Z,0.70
2023-04-05T18:02:04.633Z,0.70
2023-04-05T18:04:33.017Z,0.70
2023-04-05T18:07:01.539Z,0.70
2023-04-05T18:09:29.810Z,0.70
2023-04-05T18:11:59.592Z,0.70
2023-04-05T18:14:27.897Z,0.70
2023-04-05T18:16:56.120Z,0.70
2023-04-05T18:19:24.287Z,0.60
2023-04-05T18:21:52.559Z,0.60
2023-04-05T18:24:21.184Z,0.60
2023-04-05T18:26:49.430Z,0.60
2023-04-05T18:29:18.972Z,0.60
2023-04-05T18:31:47.180Z,0.70
2023-04-05T18:34:15.348Z,0.70
2023-04-05T18:36:46.571Z,0.70
2023-04-05T18:39:14.812Z,0.60
2023-04-05T18:41:43.254Z,0.60
2023-04-05T18:44:11.469Z,0.60
2023-04-05T18:46:41.044Z,0.60
2023-04-05T18:49:09.672Z,0.60
2023-04-05T18:51:38.398Z,0.60
2023-04-05T18:54:06.620Z,0.60
2023-04-05T18:56:34.767Z,0.60
2023-04-05T18:59:03.040Z,0.60
2023-04-05T19:01:31.713Z,0.60
2023-04-05T19:04:02.630Z,0.60
2023-04-05T19:06:35.038Z,0.60
2023-04-05T19:09:03.486Z,0.60
2023-04-05T19:11:36.614Z,0.60
2023-04-05T19:14:04.900Z,0.60
2023-04-05T19:16:33.202Z,0.60
2023-04-05T19:19:03.888Z,0.60
2023-04-05T19:21:32.379Z,0.50
2023-04-05T19:24:00.526Z,0.50
2023-04-05T19:26:28.734Z,0.50
2023-04-05T19:28:59.281Z,0.50
2023-04-05T19:31:27.952Z,0.50
2023-04-05T19:33:56.197Z,0.50
2023-04-05T19:36:26.174Z,0.50
2023-04-05T19:38:54.563Z,0.50
2023-04-05T19:41:22.796Z,0.50
2023-04-05T19:43:52.682Z,0.50
2023-04-05T19:46:20.969Z,0.50
2023-04-05T19:48:49.260Z,0.50
2023-04-05T19:51:19.155Z,0.50
2023-04-05T19:53:49.673Z,0.50
2023-04-05T19:56:19.585Z,0.50
2023-04-05T19:58:48.885Z,0.50
2023-04-05T20:01:30.168Z,0.50
2023-04-05T20:03:58.792Z,0.50
2023-04-05T20:06:27.371Z,0.50
2023-04-05T20:09:01.018Z,0.60
2023-04-05T20:11:29.442Z,0.50
2023-04-05T20:13:59.052Z,0.60
2023-04-05T20:16:28.056Z,0.60
2023-04-05T20:18:58.357Z,0.60
2023-04-05T20:21:27.358Z,0.60
2023-04-05T20:23:57.222Z,0.60
2023-04-05T20:26:29.470Z,0.60
2023-04-05T20:28:58.239Z,0.60
2023-04-05T20:31:29.072Z,0.60
2023-04-05T20:33:58.160Z,0.60
2023-04-05T20:36:30.970Z,0.60
2023-04-05T20:39:01.189Z,0.60
2023-04-05T20:41:29.864Z,0.60
2023-04-05T20:43:58.123Z,0.60
2023-04-05T20:46:26.422Z,0.70
2023-04-05T20:48:55.346Z,0.60
2023-04-05T20:51:23.575Z,0.70
2023-04-05T20:53:51.821Z,0.70
2023-04-05T20:56:21.528Z,0.70
2023-04-05T20:58:49.941Z,0.70
2023-04-05T21:01:18.306Z,0.70
2023-04-05T21:03:46.781Z,0.70
2023-04-05T21:06:15.208Z,0.70
2023-04-05T21:08:43.375Z,0.70
2023-04-05T21:11:12.112Z,0.70
2023-04-05T21:13:42.287Z,0.70
2023-04-05T21:16:10.777Z,0.70
2023-04-05T21:18:38.955Z,0.70
2023-04-05T21:21:07.164Z,0.70
2023-04-05T21:23:35.461Z,0.70
2023-04-05T21:26:04.553Z,0.70
2023-04-05T21:28:33.027Z,0.70
2023-04-05T21:31:05.732Z,0.70
2023-04-05T21:33:33.919Z,0.70
2023-04-05T21:36:02.136Z,0.70
2023-04-05T21:38:32.353Z,0.80
2023-04-05T21:41:00.791Z,0.80
2023-04-05T21:43:29.128Z,0.80
2023-04-05T21:45:57.383Z,0.80
2023-04-05T21:48:28.186Z,0.80
2023-04-05T21:50:56.494Z,0.80
2023-04-05T21:53:25.564Z,0.80
2023-04-05T21:55:53.964Z,0.80
2023-04-05T21:58:22.346Z,0.80
2023-04-05T22:00:50.662Z,0.80
2023-04-05T22:03:18.944Z,0.80
2023-04-05T22:05:48.788Z,0.80
2023-04-05T22:08:17.281Z,0.80
2023-04-05T22:10:45.747Z,0.80
2023-04-05T22:13:14.001Z,0.80
2023-04-05T22:15:44.188Z,0.80
2023-04-05T22:18:12.431Z,0.80
2023-04-05T22:20:40.875Z,0.80
2023-04-05T22:23:10.515Z,0.80
2023-04-05T22:25:38.952Z,0.80
2023-04-05T22:28:07.236Z,0.80
2023-04-05T22:30:43.802Z,0.80
2023-04-05T22:33:13.859Z,0.80
2023-04-05T22:35:42.375Z,0.80
2023-04-05T22:38:12.207Z,0.80
2023-04-05T22:40:40.353Z,0.80
2023-04-05T22:43:11.842Z,0.80
2023-04-05T22:45:40.421Z,0.80
2023-04-05T22:48:11.224Z,0.80
2023-04-05T22:50:39.653Z,0.80
2023-04-05T22:53:07.872Z,0.80
2023-04-05T22:55:40.057Z,0.80
2023-04-05T22:58:08.545Z,0.80
2023-04-05T23:00:38.652Z,0.80
2023-04-05T23:03:06.960Z,0.80
2023-04-05T23:05:38.678Z,0.80
2023-04-05T23:08:06.996Z,0.80
2023-04-05T23:10:35.176Z,0.80
2023-04-05T23:13:04.972Z,0.80
2023-04-05T23:15:33.205Z,0.80
2023-04-05T23:18:01.882Z,0.80
2023-04-05T23:20:30.161Z,0.80
2023-04-05T23:22:58.490Z,0.80
2023-04-05T23:25:26.809Z,0.80
2023-04-05T23:27:56.239Z,0.80
2023-04-05T23:30:26.271Z,0.80
2023-04-05T23:32:54.837Z,0.80
2023-04-05T23:35:23.047Z,0.80
2023-04-05T23:37:51.429Z,0.90
2023-04-05T23:40:19.695Z,0.90
2023-04-05T23:42:51.159Z,0.90
2023-04-05T23:45:19.368Z,0.80
2023-04-05T23:47:49.199Z,0.80
2023-04-05T23:50:17.452Z,0.80
2023-04-05T23:52:45.841Z,0.80
2023-04-05T23:55:13.997Z,0.80
2023-04-05T23:57:42.252Z,0.80
